Time;durP1;ratioP1;P1;durP2;ratioP2;P2;SDS_P1;SDS_P2;PMS_P1;PMS_P2;Temp;Humidity;BMP_temperature;BMP_pressure;BME280_temperature;BME280_humidity;BME280_pressure;Samples;Min_cycle;Max_cycle;Signal;HPM_P1;HPM_P2
2022/03/08 00:00:48;;;;;;;;;;;-2.30;99.90;;;;;;4171589;28;20308;-49
2022/03/08 00:02:50;;;;;;;;;;;-2.20;99.90;;;;;;4173701;28;20479;-47
2022/03/08 00:04:52;;;;;;;;;;;-2.10;99.90;;;;;;4162991;28;20348;-47
2022/03/08 00:06:54;;;;;;;;;;;-1.90;99.90;;;;;;4167285;28;20270;-47
2022/03/08 00:08:56;;;;;;;;;;;-1.80;99.90;;;;;;4177500;28;19924;-46
2022/03/08 00:10:59;;;;;;;;;;;-2.00;99.90;;;;;;4173978;28;20138;-48
2022/03/08 00:13:01;;;;;;;;;;;-2.00;99.90;;;;;;4174598;28;20325;-48
2022/03/08 00:15:12;;;;;;;;;;;-1.90;99.90;;;;;;4174460;28;20340;-46
2022/03/08 00:17:14;;;;;;;;;;;-2.00;99.90;;;;;;4176662;28;20278;-49
2022/03/08 00:19:16;;;;;;;;;;;-2.00;99.90;;;;;;4161687;28;19926;-49
2022/03/08 00:21:18;;;;;;;;;;;-2.00;99.90;;;;;;4170810;28;19929;-49
2022/03/08 00:23:20;;;;;;;;;;;-2.10;99.90;;;;;;4168003;28;20023;-49
2022/03/08 00:25:26;;;;;;;;;;;-2.10;99.90;;;;;;4176035;28;19929;-47
2022/03/08 00:27:28;;;;;;;;;;;-2.00;99.90;;;;;;4175285;28;19929;-47
2022/03/08 00:29:30;;;;;;;;;;;-1.70;99.90;;;;;;4175447;28;19928;-50
2022/03/08 00:31:32;;;;;;;;;;;-1.50;99.90;;;;;;4173512;28;20446;-47
2022/03/08 00:33:34;;;;;;;;;;;-1.50;99.90;;;;;;4161616;28;19971;-48
2022/03/08 00:35:36;;;;;;;;;;;-1.70;99.90;;;;;;4166550;28;19928;-45
2022/03/08 00:37:38;;;;;;;;;;;-1.80;99.90;;;;;;4172143;28;19929;-48
2022/03/08 00:39:40;;;;;;;;;;;-1.90;99.90;;;;;;4166885;28;19925;-45
2022/03/08 00:41:44;;;;;;;;;;;-1.90;99.90;;;;;;4171513;28;19975;-48
2022/03/08 00:43:46;;;;;;;;;;;-2.00;99.90;;;;;;4175445;28;20388;-47
2022/03/08 00:45:48;;;;;;;;;;;-2.00;99.90;;;;;;4173542;28;20471;-47
2022/03/08 00:47:50;;;;;;;;;;;-1.90;99.90;;;;;;4170636;28;20077;-47
2022/03/08 00:49:52;;;;;;;;;;;-1.90;99.90;;;;;;4161291;28;19967;-47
2022/03/08 00:51:53;;;;;;;;;;;-2.10;99.90;;;;;;4161456;28;19925;-47
2022/03/08 00:53:55;;;;;;;;;;;-2.20;99.90;;;;;;4170801;28;19936;-49
2022/03/08 00:55:57;;;;;;;;;;;-2.20;99.90;;;;;;4163269;28;19925;-49
2022/03/08 00:57:59;;;;;;;;;;;-2.20;99.90;;;;;;4162556;28;19956;-48
2022/03/08 01:00:02;;;;;;;;;;;-2.20;99.90;;;;;;4161817;28;19929;-49
2022/03/08 01:02:04;;;;;;;;;;;-2.10;99.90;;;;;;4173553;28;19925;-46
2022/03/08 01:04:07;;;;;;;;;;;-2.20;99.90;;;;;;4174682;28;19982;-48
2022/03/08 01:06:09;;;;;;;;;;;-2.10;99.90;;;;;;4175040;28;20519;-49
2022/03/08 01:08:11;;;;;;;;;;;-2.10;99.90;;;;;;4173558;28;19998;-46
2022/03/08 01:10:15;;;;;;;;;;;-2.00;99.90;;;;;;4169370;28;19932;-49
2022/03/08 01:12:17;;;;;;;;;;;-1.90;99.90;;;;;;4173823;28;19990;-49
2022/03/08 01:14:19;;;;;;;;;;;-1.90;99.90;;;;;;4166274;28;19928;-48
2022/03/08 01:16:21;;;;;;;;;;;-1.90;99.90;;;;;;4174714;28;20014;-46
2022/03/08 01:18:23;;;;;;;;;;;-1.80;99.90;;;;;;4173480;28;19929;-46
2022/03/08 01:20:25;;;;;;;;;;;-1.70;99.90;;;;;;4169255;28;19940;-49
2022/03/08 01:22:27;;;;;;;;;;;-1.60;99.90;;;;;;4162212;28;19991;-49
2022/03/08 01:24:30;;;;;;;;;;;-1.60;99.90;;;;;;4159891;28;19929;-47
2022/03/08 01:26:31;;;;;;;;;;;-1.50;99.90;;;;;;4165118;28;19929;-49
2022/03/08 01:28:34;;;;;;;;;;;-1.40;99.90;;;;;;4166014;28;19925;-48
2022/03/08 01:30:36;;;;;;;;;;;-1.30;99.90;;;;;;4163948;28;20368;-47
2022/03/08 01:32:38;;;;;;;;;;;-1.20;99.90;;;;;;4171416;28;20011;-50
2022/03/08 01:34:45;;;;;;;;;;;-1.10;99.90;;;;;;4162539;28;20377;-49
2022/03/08 01:36:55;;;;;;;;;;;-1.10;99.90;;;;;;4171458;28;20292;-48
2022/03/08 01:38:57;;;;;;;;;;;-1.00;99.90;;;;;;4168676;28;19929;-46
2022/03/08 01:40:59;;;;;;;;;;;-1.10;99.90;;;;;;4179031;28;19974;-50
2022/03/08 01:43:01;;;;;;;;;;;-1.10;99.90;;;;;;4165635;28;19925;-47
2022/03/08 01:45:03;;;;;;;;;;;-1.10;99.90;;;;;;4171900;28;19925;-50
2022/03/08 01:47:06;;;;;;;;;;;-1.00;99.90;;;;;;4168009;28;19929;-49
2022/03/08 01:49:07;;;;;;;;;;;-1.00;99.90;;;;;;4178341;28;20439;-47
2022/03/08 01:51:10;;;;;;;;;;;-0.90;99.90;;;;;;4177690;28;19929;-46
2022/03/08 01:53:12;;;;;;;;;;;-0.90;99.90;;;;;;4177662;28;20451;-49
2022/03/08 01:55:15;;;;;;;;;;;-0.80;99.90;;;;;;4176930;28;20308;-50
2022/03/08 01:57:19;;;;;;;;;;;-0.70;99.90;;;;;;4178398;28;20559;-47
2022/03/08 01:59:21;;;;;;;;;;;-0.60;99.90;;;;;;4178210;28;19951;-49
2022/03/08 02:01:23;;;;;;;;;;;-0.50;99.90;;;;;;4169747;28;19990;-50
2022/03/08 02:03:25;;;;;;;;;;;-0.30;99.90;;;;;;4166732;28;19929;-49
2022/03/08 02:05:28;;;;;;;;;;;-0.30;99.90;;;;;;4164222;28;20500;-47
2022/03/08 02:07:29;;;;;;;;;;;-0.20;99.90;;;;;;4177410;28;19968;-47
2022/03/08 02:09:32;;;;;;;;;;;-0.20;99.90;;;;;;4175811;28;20361;-46
2022/03/08 02:11:34;;;;;;;;;;;-0.10;99.90;;;;;;4174550;28;19929;-47
2022/03/08 02:13:38;;;;;;;;;;;0.10;99.90;;;;;;4177841;28;20456;-49
2022/03/08 02:15:40;;;;;;;;;;;0.20;99.90;;;;;;4179028;28;19928;-47
2022/03/08 02:17:43;;;;;;;;;;;0.30;99.90;;;;;;4170884;28;19925;-48
2022/03/08 02:19:44;;;;;;;;;;;0.40;99.90;;;;;;4175596;28;20392;-47
2022/03/08 02:21:49;;;;;;;;;;;0.60;99.90;;;;;;4164489;28;19989;-50
2022/03/08 02:23:51;;;;;;;;;;;0.50;99.90;;;;;;4178723;28;19929;-53
2022/03/08 02:25:53;;;;;;;;;;;0.50;99.90;;;;;;4176744;28;19925;-50
2022/03/08 02:27:55;;;;;;;;;;;0.50;99.90;;;;;;4175576;28;19936;-50
2022/03/08 02:29:57;;;;;;;;;;;0.50;99.90;;;;;;4176675;28;19975;-45
2022/03/08 02:31:59;;;;;;;;;;;0.40;99.90;;;;;;4178912;28;19932;-46
2022/03/08 02:34:01;;;;;;;;;;;0.40;99.90;;;;;;4176314;28;19939;-45
2022/03/08 02:36:04;;;;;;;;;;;0.40;99.90;;;;;;4172858;28;20026;-46
2022/03/08 02:38:06;;;;;;;;;;;0.40;99.90;;;;;;4163975;28;19929;-47
2022/03/08 02:40:10;;;;;;;;;;;0.50;99.90;;;;;;4168657;28;19979;-46
2022/03/08 02:42:11;;;;;;;;;;;0.40;99.90;;;;;;4165410;28;19936;-46
2022/03/08 02:44:13;;;;;;;;;;;0.40;99.90;;;;;;4175533;28;19924;-46
2022/03/08 02:46:15;;;;;;;;;;;0.30;99.90;;;;;;4173750;28;19925;-47
2022/03/08 02:48:17;;;;;;;;;;;0.30;99.90;;;;;;4177226;28;19929;-46
2022/03/08 02:50:20;;;;;;;;;;;0.30;99.90;;;;;;4175936;28;19986;-47
2022/03/08 02:52:22;;;;;;;;;;;0.40;99.90;;;;;;4169865;28;19929;-49
2022/03/08 02:54:24;;;;;;;;;;;0.40;99.90;;;;;;4165517;28;19925;-46
2022/03/08 02:56:26;;;;;;;;;;;0.30;99.90;;;;;;4177942;28;19963;-46
2022/03/08 02:58:27;;;;;;;;;;;0.20;99.90;;;;;;4167809;28;19929;-48
2022/03/08 03:00:30;;;;;;;;;;;0.20;99.90;;;;;;4176321;28;19928;-48
2022/03/08 03:02:32;;;;;;;;;;;0.20;99.90;;;;;;4171798;28;19991;-48
2022/03/08 03:04:34;;;;;;;;;;;0.10;99.90;;;;;;4176837;28;19968;-48
2022/03/08 03:06:36;;;;;;;;;;;0.00;99.90;;;;;;4175777;28;19925;-46
2022/03/08 03:08:38;;;;;;;;;;;-0.10;99.90;;;;;;4177197;28;19936;-46
2022/03/08 03:10:39;;;;;;;;;;;0.00;99.90;;;;;;4174731;28;19929;-48
2022/03/08 03:12:42;;;;;;;;;;;0.00;99.90;;;;;;4176686;28;19979;-49
2022/03/08 03:14:43;;;;;;;;;;;0.00;99.90;;;;;;4174913;28;19928;-47
2022/03/08 03:16:45;;;;;;;;;;;0.10;99.90;;;;;;4175177;28;19929;-49
2022/03/08 03:18:47;;;;;;;;;;;0.10;99.90;;;;;;4173509;28;19929;-49
2022/03/08 03:20:49;;;;;;;;;;;0.10;99.90;;;;;;4173397;28;19983;-48
2022/03/08 03:22:51;;;;;;;;;;;0.00;99.90;;;;;;4175207;28;20158;-49
2022/03/08 03:24:53;;;;;;;;;;;-0.10;99.90;;;;;;4174538;28;20451;-48
2022/03/08 03:26:55;;;;;;;;;;;-0.20;99.90;;;;;;4173354;28;19929;-47
2022/03/08 03:28:57;;;;;;;;;;;-0.20;99.90;;;;;;4161988;28;19987;-49
2022/03/08 03:30:58;;;;;;;;;;;-0.10;99.90;;;;;;4166333;28;19928;-48
2022/03/08 03:33:02;;;;;;;;;;;0.00;99.90;;;;;;4186662;28;19954;-49
2022/03/08 03:35:05;;;;;;;;;;;0.00;99.90;;;;;;4175076;28;19925;-47
2022/03/08 03:37:07;;;;;;;;;;;-0.10;99.90;;;;;;4175621;28;20079;-47
2022/03/08 03:39:08;;;;;;;;;;;-0.20;99.90;;;;;;4177136;28;19936;-47
2022/03/08 03:41:10;;;;;;;;;;;-0.20;99.90;;;;;;4175552;28;19925;-49
2022/03/08 03:43:12;;;;;;;;;;;-0.20;99.90;;;;;;4174519;28;19929;-48
2022/03/08 03:45:14;;;;;;;;;;;-0.30;99.90;;;;;;4176886;28;20389;-46
2022/03/08 03:47:16;;;;;;;;;;;-0.30;99.90;;;;;;4173579;28;19955;-47
2022/03/08 03:49:18;;;;;;;;;;;-0.20;99.90;;;;;;4168224;28;19933;-46
2022/03/08 03:51:20;;;;;;;;;;;-0.20;99.90;;;;;;4174612;28;19933;-50
2022/03/08 03:53:22;;;;;;;;;;;-0.20;99.90;;;;;;4170247;28;19929;-49
2022/03/08 03:55:24;;;;;;;;;;;-0.30;99.90;;;;;;4176203;28;19925;-47
2022/03/08 03:57:25;;;;;;;;;;;-0.30;99.90;;;;;;4171126;28;20313;-46
2022/03/08 03:59:27;;;;;;;;;;;-0.30;99.90;;;;;;4173689;28;20365;-47
2022/03/08 04:01:29;;;;;;;;;;;-0.40;99.90;;;;;;4175848;28;19929;-47
2022/03/08 04:03:31;;;;;;;;;;;-0.50;99.90;;;;;;4161346;28;19933;-49
2022/03/08 04:05:33;;;;;;;;;;;-0.50;99.90;;;;;;4186014;28;19925;-47
2022/03/08 04:07:35;;;;;;;;;;;-0.40;99.90;;;;;;4174591;28;20367;-48
2022/03/08 04:09:37;;;;;;;;;;;-0.20;99.90;;;;;;4165071;28;19929;-46
2022/03/08 04:11:39;;;;;;;;;;;-0.20;99.90;;;;;;4175959;28;19991;-48
2022/03/08 04:13:41;;;;;;;;;;;-0.30;99.90;;;;;;4174989;28;19928;-48
2022/03/08 04:15:44;;;;;;;;;;;-0.30;99.90;;;;;;4172888;28;19975;-49
2022/03/08 04:17:45;;;;;;;;;;;-0.30;99.90;;;;;;4161899;28;19936;-47
2022/03/08 04:19:47;;;;;;;;;;;-0.30;99.90;;;;;;4176191;28;19938;-49
2022/03/08 04:21:49;;;;;;;;;;;-0.40;99.90;;;;;;4167914;28;20385;-48
2022/03/08 04:23:51;;;;;;;;;;;-0.40;99.90;;;;;;4167429;28;20040;-46
2022/03/08 04:25:54;;;;;;;;;;;-0.40;99.90;;;;;;4164517;28;19925;-49
2022/03/08 04:27:56;;;;;;;;;;;-0.40;99.90;;;;;;4170802;28;19929;-48
2022/03/08 04:29:59;;;;;;;;;;;-0.60;99.90;;;;;;4172178;28;20380;-46
2022/03/08 04:32:01;;;;;;;;;;;-0.70;99.90;;;;;;4171954;28;20360;-49
2022/03/08 04:34:02;;;;;;;;;;;-0.70;99.90;;;;;;4175490;28;19932;-47
2022/03/08 04:36:04;;;;;;;;;;;-0.40;99.90;;;;;;4177025;28;19967;-48
2022/03/08 04:38:06;;;;;;;;;;;-0.40;99.90;;;;;;4165289;28;20305;-46
2022/03/08 04:40:08;;;;;;;;;;;-0.40;99.90;;;;;;4168896;28;19974;-50
2022/03/08 04:42:10;;;;;;;;;;;-0.50;99.90;;;;;;4162626;28;19971;-50
2022/03/08 04:44:12;;;;;;;;;;;-0.50;99.90;;;;;;4176651;28;20353;-49
2022/03/08 04:46:17;;;;;;;;;;;-0.50;99.90;;;;;;4173815;28;19999;-48
2022/03/08 04:48:19;;;;;;;;;;;-0.40;99.90;;;;;;4169711;28;20197;-47
2022/03/08 04:50:20;;;;;;;;;;;-0.30;99.90;;;;;;4174801;28;19933;-51
2022/03/08 04:52:22;;;;;;;;;;;-0.30;99.90;;;;;;4176671;28;19968;-49
2022/03/08 04:54:24;;;;;;;;;;;-0.40;99.90;;;;;;4175081;28;19925;-47
2022/03/08 04:56:26;;;;;;;;;;;-0.40;99.90;;;;;;4170563;28;19933;-50
2022/03/08 04:58:28;;;;;;;;;;;-0.50;99.90;;;;;;4162267;28;20039;-49
2022/03/08 05:00:30;;;;;;;;;;;-0.60;99.90;;;;;;4170265;28;20459;-50
2022/03/08 05:02:32;;;;;;;;;;;-0.50;99.90;;;;;;4172994;28;20031;-49
2022/03/08 05:04:34;;;;;;;;;;;-0.40;99.90;;;;;;4168808;28;19979;-46
2022/03/08 05:06:36;;;;;;;;;;;-0.30;99.90;;;;;;4171938;28;20007;-46
2022/03/08 05:08:38;;;;;;;;;;;-0.30;99.90;;;;;;4176607;28;19991;-46
2022/03/08 05:10:40;;;;;;;;;;;-0.40;99.90;;;;;;4164758;28;19932;-49
2022/03/08 05:12:43;;;;;;;;;;;-0.40;99.90;;;;;;4174052;28;19986;-48
2022/03/08 05:14:44;;;;;;;;;;;-0.30;99.90;;;;;;4178515;28;19925;-47
2022/03/08 05:16:46;;;;;;;;;;;-0.30;99.90;;;;;;4166568;28;19972;-50
2022/03/08 05:18:48;;;;;;;;;;;-0.30;99.90;;;;;;4172245;28;19929;-49
2022/03/08 05:20:50;;;;;;;;;;;-0.30;99.90;;;;;;4172180;28;19936;-48
2022/03/08 05:22:52;;;;;;;;;;;-0.10;99.90;;;;;;4172427;28;19933;-48
2022/03/08 05:24:57;;;;;;;;;;;0.00;99.90;;;;;;4164039;28;19932;-47
2022/03/08 05:26:59;;;;;;;;;;;0.00;99.90;;;;;;4177943;28;19982;-47
2022/03/08 05:29:01;;;;;;;;;;;0.10;99.90;;;;;;4177309;28;19970;-47
2022/03/08 05:31:03;;;;;;;;;;;0.00;99.90;;;;;;4176619;28;20412;-47
2022/03/08 05:33:05;;;;;;;;;;;-0.10;99.90;;;;;;4163541;28;20332;-47
2022/03/08 05:35:07;;;;;;;;;;;-0.20;99.90;;;;;;4170663;28;19925;-46
2022/03/08 05:37:09;;;;;;;;;;;-0.10;99.90;;;;;;4171857;28;19928;-48
2022/03/08 05:39:11;;;;;;;;;;;-0.10;99.90;;;;;;4167007;28;19971;-47
2022/03/08 05:41:13;;;;;;;;;;;-0.20;99.90;;;;;;4172206;28;20370;-48
2022/03/08 05:43:14;;;;;;;;;;;-0.30;99.90;;;;;;4176271;28;20247;-48
2022/03/08 05:45:16;;;;;;;;;;;-0.40;99.90;;;;;;4176808;28;19978;-48
2022/03/08 05:47:18;;;;;;;;;;;-0.50;99.90;;;;;;4175848;28;19932;-49
2022/03/08 05:49:20;;;;;;;;;;;-0.60;99.90;;;;;;4163219;28;19971;-47
2022/03/08 05:51:22;;;;;;;;;;;-0.60;99.90;;;;;;4169768;28;19925;-49
2022/03/08 05:53:24;;;;;;;;;;;-0.70;99.90;;;;;;4171686;28;19928;-49
2022/03/08 05:55:26;;;;;;;;;;;-0.60;99.90;;;;;;4169646;28;20468;-47
2022/03/08 05:57:28;;;;;;;;;;;-0.60;99.90;;;;;;4165707;28;19929;-47
2022/03/08 05:59:29;;;;;;;;;;;-0.50;99.90;;;;;;4177547;28;19952;-48
2022/03/08 06:01:31;;;;;;;;;;;-0.50;99.90;;;;;;4174700;28;19925;-47
2022/03/08 06:03:34;;;;;;;;;;;-0.50;99.90;;;;;;4177091;28;20233;-47
2022/03/08 06:05:36;;;;;;;;;;;-0.60;99.90;;;;;;4178753;28;19940;-44
2022/03/08 06:07:38;;;;;;;;;;;-0.70;99.90;;;;;;4172731;28;19955;-47
2022/03/08 06:09:40;;;;;;;;;;;-0.70;99.90;;;;;;4174921;28;19932;-48
2022/03/08 06:11:41;;;;;;;;;;;-0.60;99.90;;;;;;4166531;28;20033;-48
2022/03/08 06:13:43;;;;;;;;;;;-0.70;99.90;;;;;;4170471;28;20321;-46
2022/03/08 06:15:45;;;;;;;;;;;-0.70;99.90;;;;;;4176973;28;19948;-48
2022/03/08 06:17:47;;;;;;;;;;;-0.50;99.90;;;;;;4169475;28;20233;-48
2022/03/08 06:19:49;;;;;;;;;;;-0.30;99.90;;;;;;4176512;28;20286;-49
2022/03/08 06:21:51;;;;;;;;;;;-0.30;99.90;;;;;;4178896;28;19925;-47
2022/03/08 06:23:53;;;;;;;;;;;-0.40;99.90;;;;;;4165595;28;19930;-48
2022/03/08 06:25:55;;;;;;;;;;;-0.50;99.90;;;;;;4166408;28;19929;-49
2022/03/08 06:27:57;;;;;;;;;;;-0.50;99.90;;;;;;4164986;28;19924;-47
2022/03/08 06:29:59;;;;;;;;;;;-0.40;99.90;;;;;;4176118;28;19936;-50
2022/03/08 06:32:02;;;;;;;;;;;-0.30;99.90;;;;;;4168762;28;20580;-50
2022/03/08 06:34:04;;;;;;;;;;;-0.30;99.90;;;;;;4166481;28;20022;-50
2022/03/08 06:36:06;;;;;;;;;;;-0.30;99.90;;;;;;4164281;28;19960;-50
2022/03/08 06:38:07;;;;;;;;;;;-0.30;99.90;;;;;;4173426;28;19929;-46
2022/03/08 06:40:10;;;;;;;;;;;-0.30;99.90;;;;;;4168331;28;19983;-47
2022/03/08 06:42:11;;;;;;;;;;;-0.30;99.90;;;;;;4171960;28;19929;-47
2022/03/08 06:44:13;;;;;;;;;;;-0.30;99.90;;;;;;4168768;28;19925;-48
2022/03/08 06:46:15;;;;;;;;;;;-0.10;99.90;;;;;;4163526;28;19980;-47
2022/03/08 06:48:17;;;;;;;;;;;0.00;99.90;;;;;;4171148;28;19991;-47
2022/03/08 06:50:19;;;;;;;;;;;0.10;99.90;;;;;;4176299;28;19928;-51
2022/03/08 06:52:21;;;;;;;;;;;0.10;99.90;;;;;;4175766;28;20368;-50
2022/03/08 06:54:23;;;;;;;;;;;0.20;99.90;;;;;;4176161;28;19982;-51
2022/03/08 06:56:25;;;;;;;;;;;0.20;99.90;;;;;;4167966;28;20221;-53
2022/03/08 06:58:27;;;;;;;;;;;0.30;99.90;;;;;;4185617;28;19932;-51
2022/03/08 07:00:29;;;;;;;;;;;0.30;99.90;;;;;;4163823;28;19929;-52
2022/03/08 07:02:31;;;;;;;;;;;0.50;99.90;;;;;;4177375;28;20400;-49
2022/03/08 07:04:33;;;;;;;;;;;0.60;99.90;;;;;;4172558;28;20438;-50
2022/03/08 07:06:35;;;;;;;;;;;0.60;99.90;;;;;;4176475;28;19925;-49
2022/03/08 07:08:37;;;;;;;;;;;0.60;99.90;;;;;;4176333;28;19988;-52
2022/03/08 07:10:39;;;;;;;;;;;0.70;99.90;;;;;;4161472;28;20355;-52
2022/03/08 07:12:41;;;;;;;;;;;0.80;99.90;;;;;;4175483;28;19925;-50
2022/03/08 07:14:43;;;;;;;;;;;0.90;99.90;;;;;;4172828;28;19929;-52
2022/03/08 07:16:45;;;;;;;;;;;1.00;99.90;;;;;;4176485;28;19926;-51
2022/03/08 07:18:47;;;;;;;;;;;1.10;99.90;;;;;;4176752;28;20444;-50
2022/03/08 07:20:50;;;;;;;;;;;1.10;99.90;;;;;;4174572;28;19924;-51
2022/03/08 07:22:55;;;;;;;;;;;1.20;99.90;;;;;;4175097;28;20365;-50
2022/03/08 07:24:57;;;;;;;;;;;1.20;99.90;;;;;;4166315;28;19971;-48
2022/03/08 07:27:00;;;;;;;;;;;1.30;99.90;;;;;;4169366;28;20314;-50
2022/03/08 07:29:02;;;;;;;;;;;1.40;99.90;;;;;;4162581;28;20317;-50
2022/03/08 07:31:04;;;;;;;;;;;1.50;99.90;;;;;;4163689;28;19940;-50
2022/03/08 07:33:06;;;;;;;;;;;1.90;99.90;;;;;;4163166;28;19925;-49
2022/03/08 07:35:10;;;;;;;;;;;2.10;99.90;;;;;;4175378;28;19935;-50
2022/03/08 07:37:12;;;;;;;;;;;2.10;99.90;;;;;;4177187;28;19979;-48
2022/03/08 07:39:14;;;;;;;;;;;2.00;99.90;;;;;;4171336;28;19929;-49
2022/03/08 07:41:16;;;;;;;;;;;2.00;99.90;;;;;;4165967;28;19924;-51
2022/03/08 07:43:18;;;;;;;;;;;1.90;99.90;;;;;;4167079;28;19968;-50
2022/03/08 07:45:20;;;;;;;;;;;1.90;99.90;;;;;;4174463;28;20440;-51
2022/03/08 07:47:22;;;;;;;;;;;2.00;99.90;;;;;;4174870;28;20346;-50
2022/03/08 07:49:25;;;;;;;;;;;2.10;99.90;;;;;;4170986;28;20072;-50
2022/03/08 07:51:27;;;;;;;;;;;2.10;99.90;;;;;;4176367;28;19935;-50
2022/03/08 07:53:29;;;;;;;;;;;2.00;99.30;;;;;;4163230;28;19948;-51
2022/03/08 07:55:31;;;;;;;;;;;2.00;99.90;;;;;;4163527;28;19964;-50
2022/03/08 07:57:34;;;;;;;;;;;2.30;99.90;;;;;;4165202;28;19983;-46
2022/03/08 07:59:55;;;;;;;;;;;2.40;99.90;;;;;;4177943;28;20468;-49
2022/03/08 08:01:57;;;;;;;;;;;2.50;99.90;;;;;;4160653;28;19925;-49
2022/03/08 08:04:00;;;;;;;;;;;2.50;99.70;;;;;;4163621;28;19972;-50
2022/03/08 08:06:02;;;;;;;;;;;2.50;99.70;;;;;;4172019;28;20445;-50
2022/03/08 08:08:05;;;;;;;;;;;2.60;99.90;;;;;;4172824;28;19933;-48
2022/03/08 08:10:07;;;;;;;;;;;2.70;99.80;;;;;;4161050;28;19975;-47
2022/03/08 08:12:09;;;;;;;;;;;2.70;99.70;;;;;;4174698;28;19925;-48
2022/03/08 08:14:11;;;;;;;;;;;2.70;98.80;;;;;;4170927;28;20301;-48
2022/03/08 08:16:13;;;;;;;;;;;2.60;99.30;;;;;;4162723;28;19994;-49
2022/03/08 08:18:16;;;;;;;;;;;2.70;99.60;;;;;;4174095;28;20015;-50
2022/03/08 08:20:18;;;;;;;;;;;2.80;99.40;;;;;;4173117;28;19929;-50
2022/03/08 08:22:19;;;;;;;;;;;2.70;99.40;;;;;;4175570;28;19932;-50
2022/03/08 08:24:21;;;;;;;;;;;2.70;99.90;;;;;;4172849;28;20324;-50
2022/03/08 08:26:23;;;;;;;;;;;2.70;98.70;;;;;;4176950;28;20201;-50
2022/03/08 08:28:25;;;;;;;;;;;2.70;99.20;;;;;;4163500;28;20271;-47
2022/03/08 08:30:32;;;;;;;;;;;3.00;99.40;;;;;;4163093;28;19960;-51
2022/03/08 08:32:34;;;;;;;;;;;3.10;99.20;;;;;;4167847;28;19925;-49
2022/03/08 08:34:36;;;;;;;;;;;3.20;98.20;;;;;;4176907;28;19975;-53
2022/03/08 08:36:38;;;;;;;;;;;3.10;99.30;;;;;;4170249;28;19968;-51
2022/03/08 08:38:40;;;;;;;;;;;3.00;98.70;;;;;;4163328;28;19932;-50
2022/03/08 08:40:41;;;;;;;;;;;3.10;98.40;;;;;;4168528;28;20032;-50
2022/03/08 08:42:43;;;;;;;;;;;3.10;98.50;;;;;;4176449;28;19960;-50
2022/03/08 08:44:45;;;;;;;;;;;3.20;99.90;;;;;;4174352;28;19952;-49
2022/03/08 08:46:47;;;;;;;;;;;3.60;99.50;;;;;;4177008;28;20308;-48
2022/03/08 08:48:49;;;;;;;;;;;3.70;97.60;;;;;;4177246;28;20262;-50
2022/03/08 08:50:52;;;;;;;;;;;3.80;97.80;;;;;;4174112;28;19929;-50
2022/03/08 08:52:55;;;;;;;;;;;3.80;96.90;;;;;;4179199;28;19932;-49
2022/03/08 08:54:57;;;;;;;;;;;3.70;96.40;;;;;;4178366;28;19925;-49
2022/03/08 08:56:59;;;;;;;;;;;3.50;96.90;;;;;;4177944;28;19932;-51
2022/03/08 08:59:04;;;;;;;;;;;3.60;97.00;;;;;;4166655;28;20443;-51
2022/03/08 09:01:06;;;;;;;;;;;3.90;98.00;;;;;;4164306;28;19925;-49
2022/03/08 09:03:14;;;;;;;;;;;3.70;97.50;;;;;;4175084;28;19929;-49
2022/03/08 09:05:18;;;;;;;;;;;3.40;97.10;;;;;;4179055;28;20345;-49
2022/03/08 09:07:20;;;;;;;;;;;3.50;97.50;;;;;;4178284;28;20393;-49
2022/03/08 09:09:22;;;;;;;;;;;3.70;97.50;;;;;;4174248;28;20401;-48
2022/03/08 09:11:24;;;;;;;;;;;3.50;96.40;;;;;;4177981;28;20351;-51
2022/03/08 09:13:26;;;;;;;;;;;3.30;96.50;;;;;;4177135;28;19978;-48
2022/03/08 09:15:28;;;;;;;;;;;3.40;96.20;;;;;;4177257;28;20128;-48
2022/03/08 09:17:30;;;;;;;;;;;3.60;97.30;;;;;;4178673;28;19936;-50
2022/03/08 09:19:32;;;;;;;;;;;3.80;96.10;;;;;;4176304;28;20233;-50
2022/03/08 09:21:34;;;;;;;;;;;3.80;97.00;;;;;;4170990;28;19928;-48
2022/03/08 09:23:36;;;;;;;;;;;3.90;96.10;;;;;;4178024;28;19971;-50
2022/03/08 09:25:38;;;;;;;;;;;3.80;95.50;;;;;;4163121;28;19968;-49
2022/03/08 09:27:40;;;;;;;;;;;3.80;95.00;;;;;;4172598;28;19974;-51
2022/03/08 09:29:42;;;;;;;;;;;3.70;94.80;;;;;;4172654;28;19929;-51
2022/03/08 09:31:44;;;;;;;;;;;3.50;94.20;;;;;;4170985;28;19991;-50
2022/03/08 09:33:46;;;;;;;;;;;3.80;95.00;;;;;;4178163;28;20229;-50
2022/03/08 09:35:48;;;;;;;;;;;3.90;95.00;;;;;;4176828;28;19982;-51
2022/03/08 09:37:50;;;;;;;;;;;4.10;94.10;;;;;;4172316;28;19925;-50
2022/03/08 09:39:52;;;;;;;;;;;4.20;94.00;;;;;;4167102;28;19929;-50
2022/03/08 09:41:55;;;;;;;;;;;4.00;93.50;;;;;;4178703;28;19998;-51
2022/03/08 09:43:59;;;;;;;;;;;4.00;93.80;;;;;;4172546;28;19925;-51
2022/03/08 09:46:01;;;;;;;;;;;4.30;94.20;;;;;;4176687;28;19925;-50
2022/03/08 09:48:03;;;;;;;;;;;4.60;94.30;;;;;;4167374;28;19933;-50
2022/03/08 09:50:06;;;;;;;;;;;4.90;94.30;;;;;;4178458;28;19931;-48
2022/03/08 09:52:08;;;;;;;;;;;5.00;93.40;;;;;;4176623;28;19929;-50
2022/03/08 09:54:10;;;;;;;;;;;5.20;93.70;;;;;;4177014;28;19925;-48
2022/03/08 09:56:12;;;;;;;;;;;5.40;92.70;;;;;;4176555;28;20525;-48
2022/03/08 09:58:14;;;;;;;;;;;5.20;91.70;;;;;;4178219;28;19955;-50
2022/03/08 10:00:16;;;;;;;;;;;5.30;93.80;;;;;;4164993;28;20361;-50
2022/03/08 10:02:18;;;;;;;;;;;5.70;93.30;;;;;;4165145;28;19925;-51
2022/03/08 10:04:20;;;;;;;;;;;5.60;91.60;;;;;;4177660;28;19933;-50
2022/03/08 10:06:43;;;;;;;;;;;5.80;92.60;;;;;;4181441;28;20094;-50
2022/03/08 10:08:49;;;;;;;;;;;5.90;91.90;;;;;;4178271;28;19931;-50
2022/03/08 10:11:01;;;;;;;;;;;6.20;91.40;;;;;;4177424;28;19925;-51
2022/03/08 10:13:19;;;;;;;;;;;5.90;90.50;;;;;;4166227;28;19972;-51
2022/03/08 10:15:21;;;;;;;;;;;5.60;90.60;;;;;;4167611;28;19925;-51
2022/03/08 10:17:37;;;;;;;;;;;5.70;91.60;;;;;;4177329;28;19925;-51
2022/03/08 10:19:46;;;;;;;;;;;5.40;90.70;;;;;;4161967;28;19925;-50
2022/03/08 10:21:51;;;;;;;;;;;5.10;91.70;;;;;;4171444;28;19939;-51
2022/03/08 10:23:54;;;;;;;;;;;5.00;91.00;;;;;;4172813;28;19991;-50
2022/03/08 10:26:02;;;;;;;;;;;4.80;91.30;;;;;;4171892;28;19925;-48
2022/03/08 10:28:05;;;;;;;;;;;5.00;93.00;;;;;;4177935;28;19987;-50
2022/03/08 10:30:12;;;;;;;;;;;5.10;90.90;;;;;;4176533;28;19928;-50
2022/03/08 10:32:36;;;;;;;;;;;5.00;90.80;;;;;;4176640;28;20031;-50
2022/03/08 10:34:38;;;;;;;;;;;4.60;87.30;;;;;;4174023;28;20221;-51
2022/03/08 10:36:42;;;;;;;;;;;5.00;89.00;;;;;;4165056;28;19925;-50
2022/03/08 10:39:07;;;;;;;;;;;5.10;89.20;;;;;;4167358;28;19925;-51
2022/03/08 10:41:18;;;;;;;;;;;5.10;90.50;;;;;;4167009;28;19960;-50
2022/03/08 10:43:21;;;;;;;;;;;5.90;93.00;;;;;;4176681;28;19925;-54
2022/03/08 10:45:25;;;;;;;;;;;6.10;88.00;;;;;;4175392;28;20251;-53
2022/03/08 10:47:27;;;;;;;;;;;6.00;88.60;;;;;;4175555;28;19925;-51
2022/03/08 10:49:29;;;;;;;;;;;5.90;89.60;;;;;;4161917;28;19940;-50
2022/03/08 10:51:31;;;;;;;;;;;5.80;89.10;;;;;;4175780;28;20493;-50
2022/03/08 10:53:33;;;;;;;;;;;5.90;88.30;;;;;;4174246;28;19964;-51
2022/03/08 10:55:36;;;;;;;;;;;6.00;90.20;;;;;;4165909;28;19968;-49
2022/03/08 10:57:39;;;;;;;;;;;6.10;90.20;;;;;;4161667;28;20348;-50
2022/03/08 10:59:56;;;;;;;;;;;5.90;90.60;;;;;;4175315;28;20321;-52
2022/03/08 11:01:58;;;;;;;;;;;5.90;90.90;;;;;;4174749;28;20264;-51
2022/03/08 11:04:01;;;;;;;;;;;6.00;90.10;;;;;;4175901;28;19928;-52
2022/03/08 11:06:05;;;;;;;;;;;5.90;88.80;;;;;;4163180;28;19933;-51
2022/03/08 11:08:08;;;;;;;;;;;6.00;89.00;;;;;;4177342;28;20176;-50
2022/03/08 11:10:11;;;;;;;;;;;6.10;89.00;;;;;;4175807;28;19944;-52
2022/03/08 11:12:13;;;;;;;;;;;6.00;90.00;;;;;;4176154;28;19936;-51
2022/03/08 11:14:15;;;;;;;;;;;6.20;90.90;;;;;;4163123;28;19929;-49
2022/03/08 11:16:18;;;;;;;;;;;6.20;91.20;;;;;;4171571;28;19925;-52
2022/03/08 11:18:22;;;;;;;;;;;6.30;89.40;;;;;;4173359;28;20317;-50
2022/03/08 11:20:25;;;;;;;;;;;6.40;90.50;;;;;;4173175;28;19925;-50
2022/03/08 11:22:27;;;;;;;;;;;6.50;87.40;;;;;;4170158;28;20408;-50
2022/03/08 11:24:29;;;;;;;;;;;6.30;88.30;;;;;;4165109;28;19929;-51
2022/03/08 11:26:31;;;;;;;;;;;6.10;88.90;;;;;;4167790;28;19929;-52
2022/03/08 11:28:33;;;;;;;;;;;5.90;88.20;;;;;;4171263;28;19968;-51
2022/03/08 11:30:40;;;;;;;;;;;6.00;86.60;;;;;;4162266;28;19991;-50
2022/03/08 11:33:01;;;;;;;;;;;6.10;86.10;;;;;;4168597;28;19925;-51
2022/03/08 11:35:20;;;;;;;;;;;6.40;88.20;;;;;;4169138;28;19933;-50
2022/03/08 11:37:23;;;;;;;;;;;6.40;86.50;;;;;;4166301;28;19991;-50
2022/03/08 11:39:29;;;;;;;;;;;6.40;86.50;;;;;;4167360;28;19967;-50
2022/03/08 11:41:31;;;;;;;;;;;6.60;87.20;;;;;;4167065;28;20388;-47
2022/03/08 11:43:38;;;;;;;;;;;6.90;86.90;;;;;;4175779;28;19991;-49
2022/03/08 11:45:40;;;;;;;;;;;6.90;89.60;;;;;;4173151;28;19924;-51
2022/03/08 11:47:44;;;;;;;;;;;7.20;86.00;;;;;;4173905;28;20979;-51
2022/03/08 11:49:50;;;;;;;;;;;7.10;86.20;;;;;;4161126;28;19924;-51
2022/03/08 11:52:11;;;;;;;;;;;7.00;83.90;;;;;;4168031;28;19932;-50
2022/03/08 11:54:25;;;;;;;;;;;6.50;82.70;;;;;;4168166;28;20352;-51
2022/03/08 11:56:27;;;;;;;;;;;6.50;85.30;;;;;;4170580;28;19929;-50
2022/03/08 11:58:43;;;;;;;;;;;6.80;86.10;;;;;;4169787;28;19935;-51
2022/03/08 12:00:45;;;;;;;;;;;7.20;88.00;;;;;;4174785;28;19936;-51